Time;durP1;ratioP1;P1;durP2;ratioP2;P2;SDS_P1;SDS_P2;PMS_P1;PMS_P2;Temp;Humidity;BMP_temperature;BMP_pressure;BME280_temperature;BME280_humidity;BME280_pressure;Samples;Min_cycle;Max_cycle;Signal;HPM_P1;HPM_P2
2022/10/01 00:01:58;;;;;;;4.85;2.97;;;22.10;99.90;;;;;;5047377;28;20043;-73
2022/10/01 00:04:27;;;;;;;6.13;3.47;;;22.10;99.90;;;;;;5030954;28;20037;-71
2022/10/01 00:06:58;;;;;;;8.55;2.53;;;22.00;99.90;;;;;;5048686;28;20041;-72
2022/10/01 00:09:26;;;;;;;6.90;2.17;;;22.00;99.90;;;;;;5048131;28;20056;-73
2022/10/01 00:11:53;;;;;;;9.10;2.78;;;22.00;99.90;;;;;;5014690;28;20477;-74
2022/10/01 00:14:21;;;;;;;5.30;2.17;;;21.90;99.90;;;;;;5014176;28;20072;-74
2022/10/01 00:16:50;;;;;;;7.72;2.35;;;21.90;99.90;;;;;;5062238;28;20059;-72
2022/10/01 00:19:18;;;;;;;4.00;2.15;;;21.80;99.90;;;;;;5034486;28;20482;-72
2022/10/01 00:21:46;;;;;;;8.75;2.33;;;21.90;99.90;;;;;;5016075;28;20045;-71
2022/10/01 00:24:14;;;;;;;4.55;2.45;;;21.80;99.90;;;;;;5017441;28;20143;-73
2022/10/01 00:26:44;;;;;;;10.20;3.05;;;21.80;99.90;;;;;;5049759;28;20137;-72
2022/10/01 00:29:14;;;;;;;5.10;2.63;;;21.60;99.90;;;;;;5033716;28;20045;-70
2022/10/01 00:31:42;;;;;;;4.07;2.22;;;21.40;99.90;;;;;;5033454;28;20044;-73
2022/10/01 00:34:13;;;;;;;4.75;2.75;;;21.30;99.90;;;;;;5033821;28;20048;-71
2022/10/01 00:36:41;;;;;;;3.80;2.67;;;21.20;99.90;;;;;;5068473;28;20037;-71
2022/10/01 00:39:11;;;;;;;6.38;2.70;;;21.20;99.90;;;;;;5050658;28;20127;-72
2022/10/01 00:41:39;;;;;;;4.00;2.60;;;21.00;99.90;;;;;;5068485;28;20052;-74
2022/10/01 00:44:31;;;;;;;3.58;1.92;;;21.00;99.90;;;;;;5034393;28;20052;-70
2022/10/01 00:47:10;;;;;;;5.97;2.47;;;21.00;99.90;;;;;;5050289;28;20123;-72
2022/10/01 00:49:41;;;;;;;5.00;1.80;;;21.00;99.90;;;;;;5033682;28;20064;-71
2022/10/01 00:52:15;;;;;;;6.10;1.95;;;21.00;99.90;;;;;;5033689;28;20463;-71
2022/10/01 00:54:54;;;;;;;3.53;2.25;;;21.10;99.90;;;;;;5050692;28;20156;-73
2022/10/01 00:57:25;;;;;;;5.07;1.90;;;21.10;99.90;;;;;;5015865;28;20163;-74
2022/10/01 00:59:58;;;;;;;10.38;2.42;;;21.20;99.90;;;;;;5032761;28;20131;-72
2022/10/01 01:02:26;;;;;;;5.78;2.30;;;21.10;99.90;;;;;;5033076;28;20056;-74
2022/10/01 01:04:55;;;;;;;4.88;2.58;;;21.10;99.90;;;;;;5033443;28;20101;-72
2022/10/01 01:07:22;;;;;;;3.22;2.15;;;21.10;99.90;;;;;;5049700;28;20070;-70
2022/10/01 01:09:52;;;;;;;5.68;2.85;;;21.10;99.90;;;;;;5049216;28;20047;-73
2022/10/01 01:12:58;;;;;;;4.07;2.40;;;21.00;99.90;;;;;;5033478;28;20048;-70
2022/10/01 01:15:58;;;;;;;3.67;2.38;;;21.00;99.90;;;;;;5030121;28;20056;-71
2022/10/01 01:19:01;;;;;;;6.30;2.33;;;21.10;99.90;;;;;;5029750;28;20380;-71
2022/10/01 01:21:41;;;;;;;5.72;2.05;;;21.10;99.90;;;;;;5024752;28;20118;-74
2022/10/01 01:24:30;;;;;;;3.47;1.92;;;21.00;99.90;;;;;;5047919;28;20123;-70
2022/10/01 01:27:25;;;;;;;4.85;1.90;;;21.00;99.90;;;;;;5047900;28;20040;-71
2022/10/01 01:30:07;;;;;;;2.58;1.92;;;21.00;99.90;;;;;;5047552;28;20063;-72
2022/10/01 01:33:13;;;;;;;2.83;2.08;;;20.90;99.90;;;;;;5029802;28;20052;-71
2022/10/01 01:35:45;;;;;;;4.80;1.70;;;21.00;99.90;;;;;;4988979;28;20054;-74
2022/10/01 01:38:20;;;;;;;6.10;1.90;;;21.00;99.90;;;;;;5038281;28;20044;-70
2022/10/01 01:40:54;;;;;;;8.85;1.75;;;21.00;99.90;;;;;;5046204;28;20060;-73
2022/10/01 01:43:44;;;;;;;4.70;2.30;;;21.00;99.90;;;;;;5029545;28;20056;-72
2022/10/01 01:46:17;;;;;;;2.40;1.30;;;21.00;99.90;;;;;;5013661;28;20391;-73
2022/10/01 01:48:49;;;;;;;4.65;1.85;;;21.00;99.90;;;;;;5048037;28;20045;-70
2022/10/01 01:51:25;;;;;;;3.47;1.65;;;21.00;99.90;;;;;;5046609;28;20057;-71
2022/10/01 01:53:53;;;;;;;4.22;1.48;;;20.90;99.90;;;;;;5046119;28;20520;-71
2022/10/01 01:56:21;;;;;;;3.15;1.80;;;20.90;99.90;;;;;;5029951;28;20483;-71
2022/10/01 01:58:49;;;;;;;3.10;1.70;;;20.90;99.90;;;;;;5046358;28;20055;-73
2022/10/01 02:01:39;;;;;;;3.30;1.85;;;21.00;99.90;;;;;;5047088;28;20157;-72
2022/10/01 02:04:21;;;;;;;5.05;2.10;;;20.90;99.90;;;;;;5009928;28;20164;-71
2022/10/01 02:07:27;;;;;;;3.28;1.90;;;20.90;99.90;;;;;;5026045;28;20041;-71
2022/10/01 02:09:57;;;;;;;7.38;2.13;;;21.00;99.90;;;;;;4969029;28;20050;-72
2022/10/01 02:13:00;;;;;;;2.63;1.95;;;21.10;99.90;;;;;;4955497;28;20053;-71
2022/10/01 02:15:54;;;;;;;4.78;2.55;;;21.20;99.90;;;;;;5014851;28;20049;-71
2022/10/01 02:18:33;;;;;;;6.15;2.17;;;21.20;99.90;;;;;;5024878;28;20049;-72
2022/10/01 02:21:23;;;;;;;7.03;2.38;;;21.30;99.90;;;;;;4997402;28;20059;-70
2022/10/01 02:24:13;;;;;;;4.60;2.65;;;21.30;99.90;;;;;;5030034;28;20136;-71
2022/10/01 02:26:43;;;;;;;8.10;2.50;;;21.20;99.90;;;;;;5029624;28;20042;-72
2022/10/01 02:29:15;;;;;;;5.60;3.25;;;21.30;99.90;;;;;;5031392;28;20056;-72
2022/10/01 02:31:48;;;;;;;3.33;2.08;;;21.20;99.90;;;;;;5029852;28;20049;-72
2022/10/01 02:34:17;;;;;;;10.85;2.42;;;21.20;99.90;;;;;;4997653;28;20049;-70
2022/10/01 02:36:47;;;;;;;4.88;2.08;;;21.20;99.90;;;;;;5029947;28;20041;-77
2022/10/01 02:39:18;;;;;;;5.43;2.03;;;21.20;99.90;;;;;;5030055;28;20130;-71
2022/10/01 02:41:49;;;;;;;3.88;2.17;;;21.20;99.90;;;;;;5013227;28;20047;-73
2022/10/01 02:44:25;;;;;;;4.22;2.53;;;21.20;99.90;;;;;;5030832;28;20193;-71
2022/10/01 02:47:19;;;;;;;3.88;1.98;;;21.20;99.90;;;;;;5013443;28;20515;-72
2022/10/01 02:49:48;;;;;;;5.45;2.17;;;21.20;99.90;;;;;;5030832;28;20088;-72
2022/10/01 02:52:50;;;;;;;7.68;2.15;;;21.30;99.90;;;;;;5028711;28;20572;-70
2022/10/01 02:55:27;;;;;;;5.30;2.08;;;21.30;99.90;;;;;;5049251;28;20045;-68
2022/10/01 02:57:56;;;;;;;;;;;21.30;99.90;;;;;;5033398;28;20045;-70
2022/10/01 03:00:25;;;;;;;4.28;1.80;;;21.20;99.90;;;;;;5014877;28;19928;-72
2022/10/01 03:02:53;;;;;;;5.88;2.17;;;21.20;99.90;;;;;;5044383;28;20197;-73
2022/10/01 03:05:22;;;;;;;4.88;2.58;;;21.30;99.90;;;;;;5015851;28;20041;-71
2022/10/01 03:07:51;;;;;;;3.45;1.77;;;21.30;99.90;;;;;;5032715;28;20364;-70
2022/10/01 03:10:20;;;;;;;4.05;1.88;;;21.30;99.90;;;;;;5032196;28;20126;-72
2022/10/01 03:12:49;;;;;;;3.60;2.10;;;21.40;99.90;;;;;;5032082;28;20045;-71
2022/10/01 03:15:18;;;;;;;6.65;2.35;;;21.40;99.90;;;;;;5048865;28;20140;-73
2022/10/01 03:17:51;;;;;;;3.40;1.75;;;21.50;99.90;;;;;;5016310;28;20068;-70
2022/10/01 03:20:19;;;;;;;3.03;1.83;;;21.50;99.90;;;;;;5048834;28;20532;-71
2022/10/01 03:22:47;;;;;;;4.82;2.35;;;21.60;99.90;;;;;;5048119;28;20144;-74
2022/10/01 03:25:16;;;;;;;4.40;2.75;;;21.60;99.90;;;;;;5031901;28;20080;-70
2022/10/01 03:27:45;;;;;;;5.28;2.47;;;21.70;99.90;;;;;;5015560;28;20049;-70
2022/10/01 03:30:13;;;;;;;3.00;1.90;;;21.80;99.90;;;;;;5031662;28;20041;-70
2022/10/01 03:32:41;;;;;;;3.97;2.10;;;21.80;99.90;;;;;;5048326;28;20200;-71
2022/10/01 03:35:09;;;;;;;6.90;1.92;;;21.80;99.90;;;;;;5049505;28;20171;-71
2022/10/01 03:37:36;;;;;;;5.05;2.00;;;21.90;99.90;;;;;;5031799;28;20063;-70
2022/10/01 03:40:05;;;;;;;9.13;2.03;;;21.90;99.90;;;;;;5046655;28;20606;-71
2022/10/01 03:42:33;;;;;;;6.00;2.05;;;22.00;99.90;;;;;;5048254;28;20044;-72
2022/10/01 03:45:01;;;;;;;5.18;1.83;;;22.00;99.90;;;;;;5048152;28;20048;-71
2022/10/01 03:47:30;;;;;;;2.28;1.40;;;22.10;99.90;;;;;;5031563;28;20048;-71
2022/10/01 03:49:58;;;;;;;4.00;1.90;;;22.10;99.90;;;;;;5049516;28;20041;-72
2022/10/01 03:52:26;;;;;;;4.15;1.55;;;22.20;99.90;;;;;;5047895;28;20662;-70
2022/10/01 03:54:55;;;;;;;4.82;2.38;;;22.20;99.90;;;;;;5015396;28;20099;-72
2022/10/01 03:57:23;;;;;;;3.33;2.42;;;22.20;99.90;;;;;;5015805;28;20045;-74
2022/10/01 03:59:51;;;;;;;4.43;2.03;;;22.30;99.90;;;;;;5031293;28;20045;-71
2022/10/01 04:02:20;;;;;;;7.28;1.75;;;22.30;99.90;;;;;;5032110;28;20057;-71
2022/10/01 04:04:49;;;;;;;4.95;1.85;;;22.30;99.90;;;;;;5031496;28;20080;-70
2022/10/01 04:07:17;;;;;;;4.30;2.10;;;22.30;99.90;;;;;;5048112;28;20102;-74
2022/10/01 04:09:45;;;;;;;6.68;2.20;;;22.30;99.90;;;;;;5049799;28;20037;-75
2022/10/01 04:12:13;;;;;;;4.75;2.40;;;22.30;99.90;;;;;;5048565;28;20095;-73
2022/10/01 04:14:41;;;;;;;6.35;2.65;;;22.30;99.90;;;;;;5051084;28;20045;-71
2022/10/01 04:17:10;;;;;;;5.20;3.08;;;22.30;99.90;;;;;;5019173;28;20053;-70
2022/10/01 04:19:37;;;;;;;6.63;2.25;;;22.30;99.90;;;;;;5035260;28;20044;-72
2022/10/01 04:22:06;;;;;;;8.88;3.72;;;22.30;99.90;;;;;;5051724;28;20102;-72
2022/10/01 04:24:36;;;;;;;5.03;2.22;;;22.20;99.90;;;;;;5034643;28;20160;-70
2022/10/01 04:27:03;;;;;;;4.28;2.13;;;22.20;99.90;;;;;;5033541;28;20486;-70
2022/10/01 04:29:31;;;;;;;7.35;2.65;;;22.20;99.90;;;;;;5048789;28;20048;-75
2022/10/01 04:32:02;;;;;;;4.70;2.03;;;22.20;99.90;;;;;;5033715;28;20056;-70
2022/10/01 04:37:17;;;;;;;5.57;3.20;;;22.20;99.90;;;;;;5050779;28;20056;-72
2022/10/01 04:39:45;;;;;;;4.40;2.00;;;22.10;99.90;;;;;;5051060;28;20051;-72
2022/10/01 04:42:13;;;;;;;3.58;2.08;;;22.10;99.90;;;;;;5050966;28;20449;-72
2022/10/01 04:44:40;;;;;;;6.85;2.10;;;22.10;99.90;;;;;;5051077;28;20048;-71
2022/10/01 04:47:08;;;;;;;8.15;2.95;;;22.10;99.90;;;;;;5050598;28;20057;-72
2022/10/01 04:49:36;;;;;;;5.90;3.20;;;22.10;99.90;;;;;;5050406;28;20127;-70
2022/10/01 04:52:05;;;;;;;5.90;2.92;;;22.10;99.90;;;;;;5068305;28;20044;-70
2022/10/01 04:54:32;;;;;;;6.82;2.60;;;22.10;99.90;;;;;;5049376;28;20041;-70
2022/10/01 04:57:00;;;;;;;4.00;2.00;;;22.10;99.90;;;;;;5032846;28;20036;-73
2022/10/01 04:59:30;;;;;;;5.03;2.42;;;22.10;99.90;;;;;;5050413;28;20044;-72
2022/10/01 05:01:59;;;;;;;3.85;2.00;;;22.10;99.90;;;;;;5033415;28;20053;-70
2022/10/01 05:04:28;;;;;;;4.15;2.42;;;22.10;99.90;;;;;;5068394;28;20045;-72
2022/10/01 05:06:56;;;;;;;7.32;2.22;;;22.10;99.90;;;;;;5049932;28;20063;-76
2022/10/01 05:09:27;;;;;;;4.07;2.70;;;22.10;99.90;;;;;;5051250;28;20044;-74
2022/10/01 05:11:55;;;;;;;6.78;3.38;;;22.10;99.90;;;;;;5050662;28;20076;-70
2022/10/01 05:14:23;;;;;;;4.18;2.42;;;22.10;99.90;;;;;;5017331;28;20139;-70
2022/10/01 05:16:51;;;;;;;6.90;2.20;;;22.10;99.90;;;;;;5016379;28;20449;-72
2022/10/01 05:19:20;;;;;;;5.47;2.60;;;22.10;99.90;;;;;;5033264;28;20052;-77
2022/10/01 05:21:52;;;;;;;5.03;2.42;;;22.10;99.90;;;;;;5047772;28;20427;-71
2022/10/01 05:24:20;;;;;;;5.97;3.28;;;22.00;99.90;;;;;;5050474;28;20749;-71
2022/10/01 05:26:48;;;;;;;8.63;2.63;;;22.00;99.90;;;;;;5049707;28;20048;-70
2022/10/01 05:29:17;;;;;;;8.77;3.95;;;22.00;99.90;;;;;;5065552;28;20056;-73
2022/10/01 05:31:45;;;;;;;9.57;7.05;;;21.90;99.90;;;;;;5028738;28;20114;-72
2022/10/01 05:34:13;;;;;;;15.50;6.53;;;21.90;99.90;;;;;;5029090;28;20049;-75
2022/10/01 05:36:41;;;;;;;14.27;5.07;;;21.90;99.90;;;;;;4996879;28;20048;-71
2022/10/01 05:39:10;;;;;;;6.72;3.15;;;21.90;99.90;;;;;;5044010;28;20053;-71
2022/10/01 05:41:39;;;;;;;5.78;2.60;;;21.90;99.90;;;;;;5013574;28;20542;-72
2022/10/01 05:44:08;;;;;;;6.15;2.25;;;21.90;99.90;;;;;;5012723;28;20037;-73
2022/10/01 05:46:36;;;;;;;5.28;2.42;;;22.00;99.90;;;;;;5046755;28;20045;-70
2022/10/01 05:49:05;;;;;;;11.13;2.85;;;21.90;99.90;;;;;;5046889;28;20044;-70
2022/10/01 05:51:35;;;;;;;4.80;1.95;;;22.00;99.90;;;;;;5046106;28;20045;-71
2022/10/01 05:54:04;;;;;;;6.75;2.78;;;22.00;99.90;;;;;;5013092;28;20099;-72
2022/10/01 05:56:32;;;;;;;9.25;3.38;;;22.10;99.90;;;;;;5047064;28;20155;-74
2022/10/01 05:59:00;;;;;;;4.25;2.72;;;22.30;99.90;;;;;;5046202;28;20063;-71
2022/10/01 06:01:28;;;;;;;5.32;2.42;;;22.30;99.90;;;;;;5028629;28;20151;-70
2022/10/01 06:03:56;;;;;;;5.38;3.35;;;22.40;99.90;;;;;;5028544;28;20045;-73
2022/10/01 06:06:26;;;;;;;4.13;2.13;;;22.40;99.90;;;;;;5012992;28;20128;-73
2022/10/01 06:08:54;;;;;;;4.18;2.75;;;22.60;99.90;;;;;;4996805;28;20631;-71
2022/10/01 06:11:23;;;;;;;7.57;3.30;;;22.60;99.90;;;;;;5008567;28;20474;-71
2022/10/01 06:13:53;;;;;;;6.97;2.95;;;22.80;99.90;;;;;;4996329;28;20045;-70
2022/10/01 06:16:20;;;;;;;6.65;3.03;;;22.90;99.90;;;;;;5039375;28;20502;-71
2022/10/01 06:18:48;;;;;;;7.07;3.42;;;22.90;99.90;;;;;;5012167;28;20053;-70
2022/10/01 06:21:17;;;;;;;4.65;2.83;;;22.90;99.90;;;;;;5027700;28;20037;-72
2022/10/01 06:23:48;;;;;;;5.65;3.22;;;22.90;99.90;;;;;;5049105;28;20371;-70
2022/10/01 06:26:17;;;;;;;5.68;2.63;;;23.00;99.90;;;;;;5032726;28;20079;-72
2022/10/01 06:28:47;;;;;;;4.45;2.40;;;23.00;99.90;;;;;;5032543;28;20144;-72
2022/10/01 06:31:16;;;;;;;6.97;4.35;;;23.00;99.90;;;;;;5015521;28;20072;-71
2022/10/01 06:33:44;;;;;;;8.13;4.07;;;23.00;99.90;;;;;;5032977;28;20170;-72
2022/10/01 06:36:12;;;;;;;7.38;2.97;;;22.90;99.90;;;;;;5049440;28;20132;-71
2022/10/01 06:38:39;;;;;;;5.20;2.60;;;22.90;99.90;;;;;;5048945;28;20047;-72
2022/10/01 06:41:08;;;;;;;6.88;2.80;;;22.80;99.90;;;;;;5066447;28;20076;-70
2022/10/01 06:43:37;;;;;;;4.70;3.17;;;22.80;99.90;;;;;;5032621;28;20793;-71
2022/10/01 06:46:05;;;;;;;4.88;1.90;;;22.60;99.90;;;;;;5049535;28;20135;-70
2022/10/01 06:48:35;;;;;;;4.45;2.63;;;22.70;99.90;;;;;;5049496;28;20533;-72
2022/10/01 06:51:04;;;;;;;4.57;3.05;;;22.80;99.90;;;;;;5016088;28;20056;-71
2022/10/01 06:53:32;;;;;;;6.00;2.45;;;23.00;99.90;;;;;;5032464;28;20064;-72
2022/10/01 06:56:05;;;;;;;4.93;1.98;;;23.20;99.90;;;;;;5048878;28;20043;-70
2022/10/01 06:58:33;;;;;;;4.00;2.22;;;23.40;99.90;;;;;;5033670;28;20045;-69
2022/10/01 07:01:02;;;;;;;4.97;2.35;;;23.70;99.90;;;;;;5036322;28;20076;-70
2022/10/01 07:03:31;;;;;;;4.28;2.50;;;23.90;99.90;;;;;;5034276;28;20070;-72
2022/10/01 07:06:04;;;;;;;8.25;2.47;;;23.90;99.90;;;;;;5033310;28;20057;-69
2022/10/01 07:08:32;;;;;;;4.53;2.90;;;23.90;99.90;;;;;;5032690;28;20101;-69
2022/10/01 07:11:01;;;;;;;5.97;3.20;;;23.90;99.90;;;;;;5016147;28;20152;-69
2022/10/01 07:13:29;;;;;;;6.97;3.25;;;23.90;99.90;;;;;;5049890;28;20043;-70
2022/10/01 07:15:58;;;;;;;7.10;3.08;;;23.90;99.90;;;;;;5032089;28;20080;-70
2022/10/01 07:18:26;;;;;;;7.55;2.97;;;23.90;99.90;;;;;;5016250;28;20822;-69
2022/10/01 07:20:56;;;;;;;6.95;2.35;;;23.70;99.90;;;;;;5032403;28;20159;-70
2022/10/01 07:23:25;;;;;;;8.05;3.65;;;23.60;99.90;;;;;;5015536;28;20491;-71
2022/10/01 07:25:53;;;;;;;7.70;3.00;;;23.60;99.90;;;;;;4998694;28;20059;-70
2022/10/01 07:28:24;;;;;;;7.78;3.55;;;23.50;99.90;;;;;;5049183;28;20495;-69
2022/10/01 07:31:08;;;;;;;6.93;3.00;;;23.50;99.90;;;;;;5031639;28;20037;-71
2022/10/01 07:33:37;;;;;;;5.53;3.35;;;23.40;99.90;;;;;;5032580;28;20052;-72
2022/10/01 07:36:07;;;;;;;7.32;3.13;;;23.30;99.90;;;;;;5032141;28;20044;-75
2022/10/01 07:38:35;;;;;;;9.98;2.92;;;23.40;99.90;;;;;;4999355;28;20057;-75
2022/10/01 07:41:03;;;;;;;14.57;3.80;;;23.50;99.90;;;;;;5032052;28;20044;-73
2022/10/01 07:43:33;;;;;;;10.63;3.22;;;23.60;99.90;;;;;;5015864;28;20147;-73
2022/10/01 07:46:03;;;;;;;8.45;2.60;;;23.60;99.90;;;;;;5049653;28;20055;-73
2022/10/01 07:48:33;;;;;;;7.75;2.20;;;23.70;99.90;;;;;;5032507;28;20049;-73
2022/10/01 07:51:00;;;;;;;6.10;2.97;;;23.80;99.90;;;;;;5051918;28;20052;-75
2022/10/01 07:53:28;;;;;;;7.20;2.72;;;23.70;99.90;;;;;;5035187;28;20059;-73
2022/10/01 07:56:00;;;;;;;7.15;2.53;;;23.70;99.90;;;;;;5035388;28;20056;-73
2022/10/01 07:58:31;;;;;;;4.45;1.85;;;23.60;99.90;;;;;;5036795;28;20044;-75
2022/10/01 08:01:03;;;;;;;5.10;2.85;;;23.40;99.90;;;;;;5035432;28;20602;-74
2022/10/01 08:03:31;;;;;;;6.57;2.22;;;23.20;99.90;;;;;;5036398;28;20056;-73
2022/10/01 08:06:02;;;;;;;8.00;1.92;;;23.10;99.90;;;;;;5069690;28;20411;-76
2022/10/01 08:08:30;;;;;;;16.40;3.20;;;23.20;99.90;;;;;;5051875;28;20048;-71
2022/10/01 08:11:01;;;;;;;6.45;2.55;;;23.40;99.90;;;;;;5034873;28;20080;-73
2022/10/01 08:13:29;;;;;;;5.20;1.90;;;23.40;99.90;;;;;;5018735;28;20057;-76
2022/10/01 08:15:57;;;;;;;5.57;2.42;;;23.40;99.90;;;;;;5051095;28;20055;-72
2022/10/01 08:18:25;;;;;;;6.32;2.90;;;23.30;99.90;;;;;;5051629;28;20414;-72
2022/10/01 08:20:53;;;;;;;8.45;2.97;;;23.40;99.90;;;;;;5050990;28;20102;-72
2022/10/01 08:23:21;;;;;;;10.00;2.38;;;23.50;99.90;;;;;;5051096;28;20154;-72
2022/10/01 08:25:49;;;;;;;7.13;2.22;;;23.60;99.90;;;;;;5051794;28;20553;-71
2022/10/01 08:28:18;;;;;;;5.43;2.50;;;23.50;99.90;;;;;;5051319;28;20052;-71
2022/10/01 08:30:46;;;;;;;7.05;2.40;;;23.50;99.90;;;;;;5035190;28;20368;-71
2022/10/01 08:33:13;;;;;;;12.85;3.63;;;23.70;99.90;;;;;;5051333;28;20040;-73
2022/10/01 08:35:42;;;;;;;8.70;3.03;;;23.70;99.90;;;;;;5017743;28;20556;-71
2022/10/01 08:38:13;;;;;;;8.85;3.20;;;23.80;99.90;;;;;;5015021;28;20063;-72
2022/10/01 08:40:47;;;;;;;8.27;2.22;;;23.90;99.90;;;;;;5031264;28;20101;-73
2022/10/01 08:43:35;;;;;;;4.00;2.25;;;24.10;99.90;;;;;;5031147;28;20128;-74
2022/10/01 08:46:16;;;;;;;8.07;2.95;;;24.30;99.90;;;;;;5031366;28;20052;-75
2022/10/01 08:49:12;;;;;;;5.13;1.80;;;24.50;99.90;;;;;;5030512;28;20127;-70
2022/10/01 08:52:05;;;;;;;7.72;2.50;;;24.50;99.90;;;;;;5025710;28;20064;-68
2022/10/01 08:54:39;;;;;;;5.20;2.10;;;24.80;99.90;;;;;;5030393;28;20086;-71
2022/10/01 08:57:20;;;;;;;4.95;2.42;;;25.00;99.90;;;;;;5013987;28;20087;-70
2022/10/01 09:00:00;;;;;;;7.72;4.15;;;25.10;99.90;;;;;;4997386;28;20059;-74
2022/10/01 09:02:38;;;;;;;7.03;3.45;;;25.20;99.90;;;;;;4997655;28;20123;-74
2022/10/01 09:05:26;;;;;;;2.90;1.55;;;25.40;99.90;;;;;;5029809;28;20052;-74
2022/10/01 09:08:00;;;;;;;5.78;2.13;;;25.40;99.90;;;;;;5030126;28;20482;-74
2022/10/01 09:10:41;;;;;;;4.88;1.92;;;25.30;99.90;;;;;;5030297;28;20157;-74
2022/10/01 09:13:46;;;;;;;5.93;2.30;;;25.20;99.90;;;;;;5029287;28;20037;-73
2022/10/01 09:16:30;;;;;;;3.78;1.90;;;25.00;99.90;;;;;;5009824;28;20058;-74
2022/10/01 09:19:17;;;;;;;4.70;1.90;;;24.90;99.90;;;;;;5010026;28;20057;-73
2022/10/01 09:21:58;;;;;;;4.65;1.67;;;25.00;99.90;;;;;;5025596;28;20053;-74
2022/10/01 09:24:42;;;;;;;5.22;1.80;;;25.20;99.90;;;;;;5025763;28;20523;-74
2022/10/01 09:27:16;;;;;;;4.28;1.55;;;25.50;99.90;;;;;;5025876;28;20073;-74
2022/10/01 09:30:01;;;;;;;5.35;1.95;;;25.70;99.90;;;;;;5031145;28;20104;-73
2022/10/01 09:32:38;;;;;;;3.78;2.63;;;26.00;99.90;;;;;;5045977;28;20141;-75
2022/10/01 09:35:26;;;;;;;4.90;1.98;;;26.20;99.90;;;;;;5029372;28;20103;-75
2022/10/01 09:38:10;;;;;;;4.88;1.88;;;26.30;99.90;;;;;;5012218;28;20122;-76
2022/10/01 09:40:52;;;;;;;2.42;1.30;;;26.60;99.90;;;;;;5028443;28;20045;-75
2022/10/01 09:43:27;;;;;;;5.32;1.80;;;26.70;99.90;;;;;;5045070;28;20114;-76
2022/10/01 09:45:56;;;;;;;5.72;2.05;;;26.60;99.90;;;;;;5046659;28;20052;-75
2022/10/01 09:48:27;;;;;;;6.75;1.50;;;26.70;99.90;;;;;;5028351;28;20041;-76
2022/10/01 09:51:02;;;;;;;4.72;1.40;;;26.90;99.90;;;;;;5012901;28;20098;-74
2022/10/01 09:53:48;;;;;;;4.80;2.08;;;26.90;99.90;;;;;;5012749;28;20582;-75
2022/10/01 09:56:27;;;;;;;;;;;27.00;99.90;;;;;;5047533;28;20044;-75
2022/10/01 09:59:03;;;;;;;3.58;1.35;;;27.10;99.90;;;;;;5045386;28;19929;-75
2022/10/01 10:01:53;;;;;;;4.32;1.40;;;27.40;99.90;;;;;;5047284;28;20123;-75
2022/10/01 10:04:22;;;;;;;3.95;1.92;;;27.50;99.90;;;;;;5012193;28;20520;-75
2022/10/01 10:06:58;;;;;;;6.72;1.60;;;27.50;99.90;;;;;;5044941;28;20141;-75
2022/10/01 10:09:30;;;;;;;;;;;27.50;99.90;;;;;;5029885;28;20056;-75
2022/10/01 10:11:58;;;;;;;3.53;1.70;;;27.50;99.40;;;;;;5045506;28;20256;-76
2022/10/01 10:14:41;;;;;;;5.45;1.33;;;27.50;98.90;;;;;;5029344;28;20652;-75
2022/10/01 10:17:19;;;;;;;3.72;2.15;;;27.40;98.90;;;;;;5027953;28;20950;-78
2022/10/01 10:19:53;;;;;;;5.05;1.60;;;27.40;98.70;;;;;;5046065;28;20068;-75
2022/10/01 10:22:24;;;;;;;6.15;1.98;;;27.50;98.70;;;;;;5012517;28;20844;-75
2022/10/01 10:24:55;;;;;;;6.25;1.85;;;27.60;99.00;;;;;;5028991;28;20049;-75
2022/10/01 10:27:28;;;;;;;5.38;1.50;;;27.80;99.20;;;;;;5045590;28;20056;-75
2022/10/01 10:30:14;;;;;;;4.63;1.50;;;27.90;98.80;;;;;;5009366;28;20061;-75
2022/10/01 10:32:45;;;;;;;3.25;1.83;;;27.90;98.80;;;;;;5025496;28;20072;-75
2022/10/01 10:35:19;;;;;;;2.58;1.30;;;27.80;98.40;;;;;;5029168;28;20042;-74
2022/10/01 10:37:53;;;;;;;2.67;1.35;;;27.70;98.20;;;;;;5013177;28;20049;-74
2022/10/01 10:40:28;;;;;;;4.95;1.88;;;27.60;97.80;;;;;;5029609;28;20156;-74
2022/10/01 10:42:58;;;;;;;4.32;1.45;;;27.60;98.00;;;;;;5029623;28;20527;-73
2022/10/01 10:45:35;;;;;;;4.93;1.85;;;27.50;98.30;;;;;;4997350;28;20559;-74
2022/10/01 10:48:06;;;;;;;4.55;1.67;;;27.40;97.90;;;;;;4996788;28;20056;-76
2022/10/01 10:50:39;;;;;;;7.53;2.33;;;27.30;97.90;;;;;;5029286;28;20037;-73
2022/10/01 10:53:23;;;;;;;4.68;1.40;;;27.40;98.20;;;;;;5011589;28;20034;-73
2022/10/01 10:56:02;;;;;;;4.03;1.33;;;27.60;98.50;;;;;;4996297;28;20038;-74
2022/10/01 10:58:32;;;;;;;3.97;1.63;;;27.50;98.50;;;;;;5012459;28;20048;-75
2022/10/01 11:01:07;;;;;;;3.72;1.88;;;27.60;98.60;;;;;;5030086;28;20045;-75
2022/10/01 11:03:40;;;;;;;7.78;2.60;;;27.70;98.80;;;;;;5028925;28;20053;-73
2022/10/01 11:06:11;;;;;;;4.50;2.00;;;27.70;99.10;;;;;;5012372;28;20069;-78
2022/10/01 11:08:39;;;;;;;5.50;1.95;;;27.70;99.00;;;;;;5028517;28;20045;-81
2022/10/01 11:11:26;;;;;;;4.80;2.33;;;27.70;98.80;;;;;;4995453;28;20745;-78
2022/10/01 11:14:10;;;;;;;7.63;2.40;;;27.70;98.60;;;;;;5028748;28;20073;-76
2022/10/01 11:17:17;;;;;;;5.10;2.53;;;27.70;99.20;;;;;;5028081;28;20053;-77
2022/10/01 11:19:45;;;;;;;;;;;27.70;99.10;;;;;;5012366;28;20547;-78
2022/10/01 11:22:12;;;;;;;7.00;2.67;;;27.80;99.70;;;;;;5027756;28;19925;-75
2022/10/01 11:25:37;;;;;;;10.07;2.38;;;27.80;99.90;;;;;;5029762;28;20041;-75
2022/10/01 11:28:06;;;;;;;14.27;3.63;;;27.80;99.90;;;;;;4987634;28;20137;-74
2022/10/01 11:31:05;;;;;;;6.43;3.35;;;27.70;99.90;;;;;;4955423;28;20077;-75
2022/10/01 11:34:00;;;;;;;54.72;45.58;;;27.50;99.90;;;;;;5008124;28;20061;-74
2022/10/01 11:36:41;;;;;;;12.75;6.82;;;27.50;99.90;;;;;;5028716;28;20446;-74
2022/10/01 11:39:15;;;;;;;10.73;4.28;;;27.40;99.90;;;;;;5028887;28;20646;-75
2022/10/01 11:42:09;;;;;;;11.00;3.00;;;27.20;99.90;;;;;;5029437;28;20080;-75
2022/10/01 11:44:47;;;;;;;9.77;2.80;;;27.20;99.90;;;;;;5027917;28;20045;-77
2022/10/01 11:47:43;;;;;;;10.45;3.92;;;27.10;99.90;;;;;;5027582;28;20119;-78
2022/10/01 11:50:20;;;;;;;8.23;3.17;;;27.10;99.90;;;;;;5023350;28;20050;-76
2022/10/01 11:53:01;;;;;;;10.43;3.42;;;27.00;99.90;;;;;;5027402;28;20048;-75
2022/10/01 11:58:53;;;;;;;74.20;49.17;;;26.80;99.90;;;;;;5033932;28;20053;-77
2022/10/01 12:01:41;;;;;;;61.92;39.70;;;26.90;99.90;;;;;;5023642;28;20052;-78
2022/10/01 12:04:33;;;;;;;409.48;277.40;;;26.80;99.90;;;;;;5034496;28;20148;-76
2022/10/01 12:07:21;;;;;;;556.55;379.92;;;26.70;99.90;;;;;;5036793;28;20063;-74
2022/10/01 12:10:16;;;;;;;320.02;206.30;;;26.70;99.90;;;;;;5037968;28;20040;-76
2022/10/01 12:13:09;;;;;;;216.23;155.80;;;26.70;99.90;;;;;;5039933;28;20116;-75
2022/10/01 12:15:51;;;;;;;35.95;21.13;;;26.80;99.90;;;;;;5040575;28;20444;-75
2022/10/01 12:18:29;;;;;;;8.07;5.00;;;26.90;99.90;;;;;;5041614;28;20033;-75
2022/10/01 12:21:05;;;;;;;31.33;25.50;;;27.00;99.90;;;;;;5033889;28;20079;-75
2022/10/01 12:23:47;;;;;;;11.77;7.15;;;27.20;99.90;;;;;;5012036;28;20072;-76
2022/10/01 12:26:44;;;;;;;9.02;5.93;;;27.30;99.90;;;;;;5042337;28;20419;-76
2022/10/01 12:29:26;;;;;;;8.13;2.45;;;27.40;99.90;;;;;;5035828;28;20036;-75
2022/10/01 12:32:15;;;;;;;4.47;2.92;;;27.50;99.90;;;;;;5031739;28;20143;-75
2022/10/01 12:35:20;;;;;;;5.00;2.03;;;27.50;99.90;;;;;;5041614;28;20125;-75
2022/10/01 12:38:07;;;;;;;9.48;3.13;;;27.30;99.90;;;;;;5029873;28;20048;-77
2022/10/01 12:41:02;;;;;;;4.70;2.05;;;27.30;99.90;;;;;;5045274;28;20041;-75
2022/10/01 12:44:05;;;;;;;4.45;2.20;;;27.20;99.90;;;;;;5041717;28;20049;-75
2022/10/01 12:46:58;;;;;;;10.38;2.58;;;27.00;99.90;;;;;;5036583;28;20045;-75
2022/10/01 12:49:35;;;;;;;5.88;2.28;;;26.90;99.90;;;;;;5040126;28;20060;-75
2022/10/01 12:52:05;;;;;;;9.95;2.78;;;26.80;99.90;;;;;;5039555;28;20052;-74
2022/10/01 12:54:34;;;;;;;5.85;2.40;;;26.70;99.90;;;;;;5040746;28;20041;-75
2022/10/01 12:57:44;;;;;;;7.30;2.60;;;26.60;99.90;;;;;;5028791;28;20115;-75
2022/10/01 13:00:23;;;;;;;6.10;2.65;;;26.60;99.90;;;;;;5026420;28;20499;-76
2022/10/01 13:03:10;;;;;;;7.78;2.92;;;26.70;99.90;;;;;;5028571;28;20403;-76
2022/10/01 13:05:53;;;;;;;5.55;2.42;;;26.70;99.90;;;;;;5029388;28;20572;-75
2022/10/01 13:08:27;;;;;;;8.00;2.20;;;26.70;99.90;;;;;;5045088;28;20045;-75
2022/10/01 13:11:06;;;;;;;10.80;2.57;;;26.80;99.90;;;;;;5039138;28;20049;-76
2022/10/01 13:13:37;;;;;;;6.00;2.25;;;26.80;99.90;;;;;;5044041;28;20048;-75
2022/10/01 13:16:39;;;;;;;5.18;3.17;;;26.70;99.90;;;;;;5044557;28;20061;-76
2022/10/01 13:19:27;;;;;;;9.70;2.63;;;26.70;99.90;;;;;;4992832;28;20053;-75
2022/10/01 13:22:20;;;;;;;8.55;2.53;;;26.70;99.90;;;;;;5028805;28;20049;-76
2022/10/01 13:25:11;;;;;;;10.05;2.53;;;26.70;99.90;;;;;;5031591;28;20056;-76
2022/10/01 13:27:46;;;;;;;18.00;3.40;;;26.70;99.90;;;;;;5018124;28;20049;-75
2022/10/01 13:30:21;;;;;;;6.65;2.95;;;26.60;99.90;;;;;;5042753;28;20045;-76
2022/10/01 13:32:50;;;;;;;;;;;26.60;99.90;;;;;;5044441;28;20510;-75